sensor_id;sensor_type;location;lat;lon;timestamp;noise_LAeq;noise_LA_min;noise_LA_max;noise_LA01;noise_LA95
72028;Laerm;59781;52.090;5.030;2023-05-16T00:00:27;39.12;37.55;41.98;;
72028;Laerm;59781;52.090;5.030;2023-05-16T00:02:53;39.36;37.41;43.10;;
72028;Laerm;59781;52.090;5.030;2023-05-16T00:05:19;39.85;37.51;46.85;;
72028;Laerm;59781;52.090;5.030;2023-05-16T00:07:45;39.53;37.44;47.61;;
72028;Laerm;59781;52.090;5.030;2023-05-16T00:10:12;39.16;37.54;47.86;;
72028;Laerm;59781;52.090;5.030;2023-05-16T00:12:39;39.08;37.05;40.80;;
72028;Laerm;59781;52.090;5.030;2023-05-16T00:15:06;39.20;37.36;42.35;;
72028;Laerm;59781;52.090;5.030;2023-05-16T00:17:34;39.29;37.47;41.63;;
72028;Laerm;59781;52.090;5.030;2023-05-16T00:20:01;39.21;37.43;42.10;;
72028;Laerm;59781;52.090;5.030;2023-05-16T00:22:36;39.14;37.49;40.99;;
72028;Laerm;59781;52.090;5.030;2023-05-16T00:25:02;39.18;37.59;42.82;;
72028;Laerm;59781;52.090;5.030;2023-05-16T00:27:28;39.19;37.63;40.70;;
72028;Laerm;59781;52.090;5.030;2023-05-16T00:29:55;39.23;37.34;56.40;;
72028;Laerm;59781;52.090;5.030;2023-05-16T00:32:21;39.34;37.47;41.60;;
72028;Laerm;59781;52.090;5.030;2023-05-16T00:34:46;39.28;37.73;42.30;;
72028;Laerm;59781;52.090;5.030;2023-05-16T00:37:13;39.48;37.59;60.34;;
72028;Laerm;59781;52.090;5.030;2023-05-16T00:39:38;39.31;37.57;46.94;;
72028;Laerm;59781;52.090;5.030;2023-05-16T00:42:05;39.27;37.61;40.65;;
72028;Laerm;59781;52.090;5.030;2023-05-16T00:44:30;39.22;37.65;41.12;;
72028;Laerm;59781;52.090;5.030;2023-05-16T00:46:56;39.61;37.66;44.37;;
72028;Laerm;59781;52.090;5.030;2023-05-16T00:49:23;39.21;37.36;43.18;;
72028;Laerm;59781;52.090;5.030;2023-05-16T00:51:49;39.41;37.59;42.29;;
72028;Laerm;59781;52.090;5.030;2023-05-16T00:54:21;39.13;37.39;40.69;;
72028;Laerm;59781;52.090;5.030;2023-05-16T00:56:47;39.14;37.63;40.68;;
72028;Laerm;59781;52.090;5.030;2023-05-16T00:59:15;39.33;37.47;42.37;;
72028;Laerm;59781;52.090;5.030;2023-05-16T01:01:45;39.13;37.57;40.70;;
72028;Laerm;59781;52.090;5.030;2023-05-16T01:04:13;39.81;37.21;51.71;;
72028;Laerm;59781;52.090;5.030;2023-05-16T01:06:39;41.29;37.58;53.05;;
72028;Laerm;59781;52.090;5.030;2023-05-16T01:09:06;39.28;37.54;42.76;;
72028;Laerm;59781;52.090;5.030;2023-05-16T01:12:10;39.54;37.37;43.59;;
72028;Laerm;59781;52.090;5.030;2023-05-16T01:17:57;39.17;37.43;41.03;;
72028;Laerm;59781;52.090;5.030;2023-05-16T01:20:59;39.21;37.40;48.12;;
72028;Laerm;59781;52.090;5.030;2023-05-16T01:27:11;39.61;37.50;45.40;;
72028;Laerm;59781;52.090;5.030;2023-05-16T01:29:38;39.00;37.22;43.76;;
72028;Laerm;59781;52.090;5.030;2023-05-16T01:32:04;39.41;36.89;42.94;;
72028;Laerm;59781;52.090;5.030;2023-05-16T01:34:29;39.11;37.39;40.78;;
72028;Laerm;59781;52.090;5.030;2023-05-16T01:37:19;41.08;37.06;50.38;;
72028;Laerm;59781;52.090;5.030;2023-05-16T01:40:02;39.13;37.46;41.38;;
72028;Laerm;59781;52.090;5.030;2023-05-16T01:42:36;39.36;37.54;43.48;;
72028;Laerm;59781;52.090;5.030;2023-05-16T01:45:25;39.17;37.39;40.86;;
72028;Laerm;59781;52.090;5.030;2023-05-16T01:48:21;39.23;37.46;40.82;;
72028;Laerm;59781;52.090;5.030;2023-05-16T01:50:54;39.21;37.73;41.01;;
72028;Laerm;59781;52.090;5.030;2023-05-16T01:53:36;39.38;37.62;59.92;;
72028;Laerm;59781;52.090;5.030;2023-05-16T01:56:14;39.74;37.48;43.94;;
72028;Laerm;59781;52.090;5.030;2023-05-16T01:58:41;39.48;37.57;42.62;;
72028;Laerm;59781;52.090;5.030;2023-05-16T02:01:07;39.37;37.55;40.92;;
72028;Laerm;59781;52.090;5.030;2023-05-16T02:03:34;39.44;37.70;43.31;;
72028;Laerm;59781;52.090;5.030;2023-05-16T02:06:00;39.51;37.73;43.40;;
72028;Laerm;59781;52.090;5.030;2023-05-16T02:08:27;40.11;37.35;45.73;;
72028;Laerm;59781;52.090;5.030;2023-05-16T02:10:53;39.58;37.72;42.29;;
72028;Laerm;59781;52.090;5.030;2023-05-16T02:13:20;39.50;37.61;44.48;;
72028;Laerm;59781;52.090;5.030;2023-05-16T02:15:45;39.42;37.54;42.60;;
72028;Laerm;59781;52.090;5.030;2023-05-16T02:18:11;39.26;37.74;41.22;;
72028;Laerm;59781;52.090;5.030;2023-05-16T02:20:37;39.63;37.61;44.54;;
72028;Laerm;59781;52.090;5.030;2023-05-16T02:23:04;39.18;37.60;41.10;;
72028;Laerm;59781;52.090;5.030;2023-05-16T02:25:31;39.25;37.26;40.77;;
72028;Laerm;59781;52.090;5.030;2023-05-16T02:27:57;39.29;37.57;41.15;;
72028;Laerm;59781;52.090;5.030;2023-05-16T02:30:22;39.44;37.64;43.03;;
72028;Laerm;59781;52.090;5.030;2023-05-16T02:32:48;39.73;37.62;46.98;;
72028;Laerm;59781;52.090;5.030;2023-05-16T02:35:14;39.71;37.59;43.59;;
72028;Laerm;59781;52.090;5.030;2023-05-16T02:37:41;39.75;38.01;43.44;;
72028;Laerm;59781;52.090;5.030;2023-05-16T02:40:07;39.45;37.43;41.12;;
72028;Laerm;59781;52.090;5.030;2023-05-16T02:42:35;39.41;37.45;41.69;;
72028;Laerm;59781;52.090;5.030;2023-05-16T02:45:01;39.41;37.71;41.21;;
72028;Laerm;59781;52.090;5.030;2023-05-16T02:47:27;39.71;38.06;43.85;;
72028;Laerm;59781;52.090;5.030;2023-05-16T02:49:53;39.85;38.09;43.00;;
72028;Laerm;59781;52.090;5.030;2023-05-16T02:52:19;40.80;38.20;51.77;;
72028;Laerm;59781;52.090;5.030;2023-05-16T02:54:46;40.78;38.21;49.97;;
72028;Laerm;59781;52.090;5.030;2023-05-16T02:57:12;40.98;38.09;51.83;;
72028;Laerm;59781;52.090;5.030;2023-05-16T02:59:38;41.12;37.96;51.45;;
72028;Laerm;59781;52.090;5.030;2023-05-16T03:02:04;40.76;37.98;51.32;;
72028;Laerm;59781;52.090;5.030;2023-05-16T03:04:29;41.10;38.50;51.33;;
72028;Laerm;59781;52.090;5.030;2023-05-16T03:06:55;41.31;38.41;50.80;;
72028;Laerm;59781;52.090;5.030;2023-05-16T03:09:21;41.44;38.39;52.35;;
72028;Laerm;59781;52.090;5.030;2023-05-16T03:11:47;41.96;37.79;54.39;;
72028;Laerm;59781;52.090;5.030;2023-05-16T03:14:13;41.12;38.44;54.78;;
72028;Laerm;59781;52.090;5.030;2023-05-16T03:16:39;40.56;38.17;46.99;;
72028;Laerm;59781;52.090;5.030;2023-05-16T03:19:06;40.53;38.01;51.07;;
72028;Laerm;59781;52.090;5.030;2023-05-16T03:21:32;42.38;38.35;62.12;;
72028;Laerm;59781;52.090;5.030;2023-05-16T03:23:58;40.90;38.18;48.64;;
72028;Laerm;59781;52.090;5.030;2023-05-16T03:26:24;40.40;38.33;47.93;;
72028;Laerm;59781;52.090;5.030;2023-05-16T03:28:50;40.25;37.81;48.41;;
72028;Laerm;59781;52.090;5.030;2023-05-16T03:31:16;40.29;38.15;46.01;;
72028;Laerm;59781;52.090;5.030;2023-05-16T03:33:42;40.74;38.10;48.20;;
72028;Laerm;59781;52.090;5.030;2023-05-16T03:36:09;40.87;38.29;49.75;;
72028;Laerm;59781;52.090;5.030;2023-05-16T03:38:36;41.20;38.05;50.69;;
72028;Laerm;59781;52.090;5.030;2023-05-16T03:41:01;40.31;38.18;45.82;;
72028;Laerm;59781;52.090;5.030;2023-05-16T03:43:27;40.69;38.43;46.85;;
72028;Laerm;59781;52.090;5.030;2023-05-16T03:45:53;40.83;38.44;46.35;;
72028;Laerm;59781;52.090;5.030;2023-05-16T03:48:19;40.92;38.57;46.99;;
72028;Laerm;59781;52.090;5.030;2023-05-16T03:50:45;41.51;38.99;53.87;;
72028;Laerm;59781;52.090;5.030;2023-05-16T03:53:11;41.34;38.26;64.48;;
72028;Laerm;59781;52.090;5.030;2023-05-16T03:55:37;41.18;39.00;44.84;;
72028;Laerm;59781;52.090;5.030;2023-05-16T03:58:02;41.17;38.80;46.20;;
72028;Laerm;59781;52.090;5.030;2023-05-16T04:00:28;46.43;39.02;68.27;;
72028;Laerm;59781;52.090;5.030;2023-05-16T04:02:54;42.31;39.40;50.45;;
72028;Laerm;59781;52.090;5.030;2023-05-16T04:05:20;41.15;38.82;47.41;;
72028;Laerm;59781;52.090;5.030;2023-05-16T04:07:46;41.52;39.04;48.59;;
72028;Laerm;59781;52.090;5.030;2023-05-16T04:10:13;41.40;39.22;46.22;;
72028;Laerm;59781;52.090;5.030;2023-05-16T04:12:39;41.68;39.59;45.65;;
72028;Laerm;59781;52.090;5.030;2023-05-16T04:15:06;41.75;38.92;60.79;;
72028;Laerm;59781;52.090;5.030;2023-05-16T04:17:32;41.93;39.32;47.06;;
72028;Laerm;59781;52.090;5.030;2023-05-16T04:19:58;42.37;38.74;63.79;;
72028;Laerm;59781;52.090;5.030;2023-05-16T04:22:25;41.42;38.87;46.49;;
72028;Laerm;59781;52.090;5.030;2023-05-16T04:24:51;41.41;38.74;48.11;;
72028;Laerm;59781;52.090;5.030;2023-05-16T04:27:17;41.54;39.32;45.02;;
72028;Laerm;59781;52.090;5.030;2023-05-16T04:29:44;44.18;39.04;55.47;;
72028;Laerm;59781;52.090;5.030;2023-05-16T04:32:10;41.95;39.47;52.31;;
72028;Laerm;59781;52.090;5.030;2023-05-16T04:34:37;41.78;39.29;47.17;;
72028;Laerm;59781;52.090;5.030;2023-05-16T04:37:04;46.13;39.63;60.20;;
72028;Laerm;59781;52.090;5.030;2023-05-16T04:39:30;44.95;40.13;64.56;;
72028;Laerm;59781;52.090;5.030;2023-05-16T04:41:56;42.42;39.86;64.05;;
72028;Laerm;59781;52.090;5.030;2023-05-16T04:44:24;42.12;39.74;45.68;;
72028;Laerm;59781;52.090;5.030;2023-05-16T04:46:51;42.50;40.03;51.53;;
72028;Laerm;59781;52.090;5.030;2023-05-16T04:49:20;42.66;40.42;58.78;;
72028;Laerm;59781;52.090;5.030;2023-05-16T04:51:48;42.16;39.87;46.41;;
72028;Laerm;59781;52.090;5.030;2023-05-16T04:54:14;42.79;40.35;49.86;;
72028;Laerm;59781;52.090;5.030;2023-05-16T04:56:40;43.35;40.39;50.71;;
72028;Laerm;59781;52.090;5.030;2023-05-16T04:59:05;42.98;40.14;45.72;;
72028;Laerm;59781;52.090;5.030;2023-05-16T05:01:31;42.75;40.26;50.48;;
72028;Laerm;59781;52.090;5.030;2023-05-16T05:03:57;44.04;40.22;55.84;;
72028;Laerm;59781;52.090;5.030;2023-05-16T05:06:23;43.70;40.54;49.85;;
72028;Laerm;59781;52.090;5.030;2023-05-16T05:08:48;43.52;40.93;48.11;;
72028;Laerm;59781;52.090;5.030;2023-05-16T05:11:14;44.02;40.53;48.75;;
72028;Laerm;59781;52.090;5.030;2023-05-16T05:13:40;44.44;40.53;71.13;;
72028;Laerm;59781;52.090;5.030;2023-05-16T05:16:06;44.45;40.50;56.62;;
72028;Laerm;59781;52.090;5.030;2023-05-16T05:18:32;48.93;40.53;76.66;;
72028;Laerm;59781;52.090;5.030;2023-05-16T05:20:58;43.29;40.43;61.40;;
72028;Laerm;59781;52.090;5.030;2023-05-16T05:23:24;45.43;40.32;58.34;;
72028;Laerm;59781;52.090;5.030;2023-05-16T05:25:50;43.50;40.07;55.13;;
72028;Laerm;59781;52.090;5.030;2023-05-16T05:28:16;42.99;40.24;59.93;;
72028;Laerm;59781;52.090;5.030;2023-05-16T05:30:41;45.30;40.18;58.67;;
72028;Laerm;59781;52.090;5.030;2023-05-16T05:33:12;46.32;40.56;64.04;;
72028;Laerm;59781;52.090;5.030;2023-05-16T05:35:38;43.63;40.38;55.35;;
72028;Laerm;59781;52.090;5.030;2023-05-16T05:38:04;45.23;40.36;62.02;;
72028;Laerm;59781;52.090;5.030;2023-05-16T05:40:30;46.96;40.70;75.23;;
72028;Laerm;59781;52.090;5.030;2023-05-16T05:42:56;44.76;41.29;58.30;;
72028;Laerm;59781;52.090;5.030;2023-05-16T05:45:21;48.34;41.44;57.98;;
72028;Laerm;59781;52.090;5.030;2023-05-16T05:47:47;47.83;40.39;67.35;;
72028;Laerm;59781;52.090;5.030;2023-05-16T05:50:13;44.04;40.64;51.46;;
72028;Laerm;59781;52.090;5.030;2023-05-16T05:52:40;45.93;40.69;54.56;;
72028;Laerm;59781;52.090;5.030;2023-05-16T05:55:06;43.86;40.54;58.85;;
72028;Laerm;59781;52.090;5.030;2023-05-16T05:57:32;46.11;40.93;57.41;;
72028;Laerm;59781;52.090;5.030;2023-05-16T05:59:57;43.85;40.74;48.45;;
72028;Laerm;59781;52.090;5.030;2023-05-16T06:02:23;46.25;41.75;58.38;;
72028;Laerm;59781;52.090;5.030;2023-05-16T06:04:49;57.42;41.66;71.23;;
72028;Laerm;59781;52.090;5.030;2023-05-16T06:07:14;46.10;40.84;59.98;;
72028;Laerm;59781;52.090;5.030;2023-05-16T06:09:41;43.93;41.04;55.86;;
72028;Laerm;59781;52.090;5.030;2023-05-16T06:12:08;44.55;40.37;53.87;;
72028;Laerm;59781;52.090;5.030;2023-05-16T06:14:34;48.02;40.09;62.36;;
72028;Laerm;59781;52.090;5.030;2023-05-16T06:16:59;49.05;39.91;67.91;;
72028;Laerm;59781;52.090;5.030;2023-05-16T06:19:25;48.60;41.03;63.06;;
72028;Laerm;59781;52.090;5.030;2023-05-16T06:21:51;45.75;40.30;62.32;;
72028;Laerm;59781;52.090;5.030;2023-05-16T06:24:16;49.63;39.23;64.30;;
72028;Laerm;59781;52.090;5.030;2023-05-16T06:26:42;43.42;39.80;51.95;;
72028;Laerm;59781;52.090;5.030;2023-05-16T06:29:10;47.12;39.46;58.13;;
72028;Laerm;59781;52.090;5.030;2023-05-16T06:31:36;43.03;39.68;50.06;;
72028;Laerm;59781;52.090;5.030;2023-05-16T06:34:02;43.37;39.57;49.12;;
72028;Laerm;59781;52.090;5.030;2023-05-16T06:36:27;43.39;39.77;57.48;;
72028;Laerm;59781;52.090;5.030;2023-05-16T06:38:53;43.23;39.70;52.77;;
72028;Laerm;59781;52.090;5.030;2023-05-16T06:41:19;42.46;39.25;47.81;;
72028;Laerm;59781;52.090;5.030;2023-05-16T06:43:45;43.16;39.74;55.91;;
72028;Laerm;59781;52.090;5.030;2023-05-16T06:46:11;46.02;40.04;71.40;;
72028;Laerm;59781;52.090;5.030;2023-05-16T06:48:37;47.49;39.54;73.58;;
72028;Laerm;59781;52.090;5.030;2023-05-16T06:51:03;45.53;39.54;55.78;;
72028;Laerm;59781;52.090;5.030;2023-05-16T06:53:28;43.35;39.85;52.57;;
72028;Laerm;59781;52.090;5.030;2023-05-16T06:55:54;42.47;39.40;53.00;;
72028;Laerm;59781;52.090;5.030;2023-05-16T06:58:20;53.98;39.62;75.79;;
72028;Laerm;59781;52.090;5.030;2023-05-16T07:00:49;42.73;39.34;52.80;;
72028;Laerm;59781;52.090;5.030;2023-05-16T07:03:15;42.74;39.81;51.81;;
72028;Laerm;59781;52.090;5.030;2023-05-16T07:05:41;43.90;39.86;58.12;;
72028;Laerm;59781;52.090;5.030;2023-05-16T07:08:10;51.01;39.89;66.31;;
72028;Laerm;59781;52.090;5.030;2023-05-16T07:10:37;42.40;39.20;48.38;;
72028;Laerm;59781;52.090;5.030;2023-05-16T07:13:03;43.36;40.39;53.42;;
72028;Laerm;59781;52.090;5.030;2023-05-16T07:15:30;46.75;40.34;73.13;;
72028;Laerm;59781;52.090;5.030;2023-05-16T07:17:56;44.70;40.37;61.18;;
72028;Laerm;59781;52.090;5.030;2023-05-16T07:20:22;44.29;40.24;63.30;;
72028;Laerm;59781;52.090;5.030;2023-05-16T07:22:48;44.43;40.00;60.62;;
72028;Laerm;59781;52.090;5.030;2023-05-16T07:25:14;43.64;39.20;62.82;;
72028;Laerm;59781;52.090;5.030;2023-05-16T07:27:41;43.00;39.68;55.45;;
72028;Laerm;59781;52.090;5.030;2023-05-16T07:30:11;42.22;39.39;57.42;;
72028;Laerm;59781;52.090;5.030;2023-05-16T07:32:37;42.34;39.60;56.46;;
72028;Laerm;59781;52.090;5.030;2023-05-16T07:35:04;42.32;39.48;50.38;;
72028;Laerm;59781;52.090;5.030;2023-05-16T07:37:30;44.48;39.83;58.33;;
72028;Laerm;59781;52.090;5.030;2023-05-16T07:39:55;43.38;39.78;54.91;;
72028;Laerm;59781;52.090;5.030;2023-05-16T07:42:21;43.59;39.68;54.35;;
72028;Laerm;59781;52.090;5.030;2023-05-16T07:44:47;47.24;40.74;70.62;;
72028;Laerm;59781;52.090;5.030;2023-05-16T07:47:12;43.68;40.63;51.35;;
72028;Laerm;59781;52.090;5.030;2023-05-16T07:49:38;44.31;40.32;59.45;;
72028;Laerm;59781;52.090;5.030;2023-05-16T07:52:04;42.94;39.97;57.77;;
72028;Laerm;59781;52.090;5.030;2023-05-16T07:54:34;43.54;40.04;53.24;;
72028;Laerm;59781;52.090;5.030;2023-05-16T07:57:00;43.04;39.70;52.58;;
72028;Laerm;59781;52.090;5.030;2023-05-16T07:59:27;43.25;39.89;54.87;;
72028;Laerm;59781;52.090;5.030;2023-05-16T08:01:53;43.06;39.20;53.01;;
72028;Laerm;59781;52.090;5.030;2023-05-16T08:04:20;43.94;39.88;63.70;;
72028;Laerm;59781;52.090;5.030;2023-05-16T08:06:46;43.62;40.06;50.69;;
72028;Laerm;59781;52.090;5.030;2023-05-16T08:09:12;43.98;40.13;57.65;;
72028;Laerm;59781;52.090;5.030;2023-05-16T08:11:38;44.00;40.05;54.71;;
72028;Laerm;59781;52.090;5.030;2023-05-16T08:14:04;43.15;39.10;56.45;;
72028;Laerm;59781;52.090;5.030;2023-05-16T08:16:31;43.35;39.53;53.79;;
72028;Laerm;59781;52.090;5.030;2023-05-16T08:18:56;41.81;38.97;58.48;;
72028;Laerm;59781;52.090;5.030;2023-05-16T08:21:22;41.88;38.81;64.83;;
72028;Laerm;59781;52.090;5.030;2023-05-16T08:23:48;42.38;38.74;65.09;;
72028;Laerm;59781;52.090;5.030;2023-05-16T08:26:13;41.93;38.84;52.34;;
72028;Laerm;59781;52.090;5.030;2023-05-16T08:28:39;43.36;39.33;51.55;;
72028;Laerm;59781;52.090;5.030;2023-05-16T08:31:05;44.11;39.75;54.24;;
72028;Laerm;59781;52.090;5.030;2023-05-16T08:33:30;42.69;38.96;56.36;;
72028;Laerm;59781;52.090;5.030;2023-05-16T08:35:57;41.78;39.10;49.09;;
72028;Laerm;59781;52.090;5.030;2023-05-16T08:38:23;42.96;39.25;50.99;;
72028;Laerm;59781;52.090;5.030;2023-05-16T08:40:49;42.45;39.03;50.40;;
72028;Laerm;59781;52.090;5.030;2023-05-16T08:43:15;42.61;39.11;52.35;;
72028;Laerm;59781;52.090;5.030;2023-05-16T08:45:41;41.25;38.84;52.61;;
72028;Laerm;59781;52.090;5.030;2023-05-16T08:48:09;42.87;38.86;50.64;;
72028;Laerm;59781;52.090;5.030;2023-05-16T08:50:36;43.39;39.50;62.60;;
72028;Laerm;59781;52.090;5.030;2023-05-16T08:53:07;43.25;39.81;57.47;;
72028;Laerm;59781;52.090;5.030;2023-05-16T08:55:35;42.42;39.38;50.84;;
72028;Laerm;59781;52.090;5.030;2023-05-16T08:58:02;42.09;39.12;50.15;;
72028;Laerm;59781;52.090;5.030;2023-05-16T09:00:29;41.90;39.13;48.71;;
72028;Laerm;59781;52.090;5.030;2023-05-16T09:02:56;42.78;39.36;59.81;;
72028;Laerm;59781;52.090;5.030;2023-05-16T09:05:23;44.30;39.34;61.24;;
72028;Laerm;59781;52.090;5.030;2023-05-16T09:07:49;41.91;38.88;56.69;;
72028;Laerm;59781;52.090;5.030;2023-05-16T09:10:15;44.48;39.54;59.51;;
72028;Laerm;59781;52.090;5.030;2023-05-16T09:12:41;43.29;40.42;52.55;;
72028;Laerm;59781;52.090;5.030;2023-05-16T09:15:09;42.14;39.21;47.19;;
72028;Laerm;59781;52.090;5.030;2023-05-16T09:17:43;42.30;39.34;51.23;;
72028;Laerm;59781;52.090;5.030;2023-05-16T09:20:10;43.05;39.73;54.48;;
72028;Laerm;59781;52.090;5.030;2023-05-16T09:22:37;42.49;40.09;48.73;;
72028;Laerm;59781;52.090;5.030;2023-05-16T09:25:04;44.28;40.12;58.18;;
72028;Laerm;59781;52.090;5.030;2023-05-16T09:27:30;42.62;39.37;57.25;;
72028;Laerm;59781;52.090;5.030;2023-05-16T09:29:58;44.48;39.31;65.28;;
72028;Laerm;59781;52.090;5.030;2023-05-16T09:32:24;43.56;39.29;53.86;;
72028;Laerm;59781;52.090;5.030;2023-05-16T09:34:54;42.93;39.69;48.43;;
72028;Laerm;59781;52.090;5.030;2023-05-16T09:37:23;52.41;40.19;67.65;;
72028;Laerm;59781;52.090;5.030;2023-05-16T09:39:52;42.63;39.77;49.22;;
72028;Laerm;59781;52.090;5.030;2023-05-16T09:42:20;42.05;39.19;54.22;;
72028;Laerm;59781;52.090;5.030;2023-05-16T09:44:52;42.99;39.33;53.15;;
72028;Laerm;59781;52.090;5.030;2023-05-16T09:47:21;42.46;39.28;61.00;;
72028;Laerm;59781;52.090;5.030;2023-05-16T09:49:52;45.17;39.71;65.55;;
72028;Laerm;59781;52.090;5.030;2023-05-16T09:52:18;47.58;38.58;69.34;;
72028;Laerm;59781;52.090;5.030;2023-05-16T09:54:46;43.77;39.40;50.63;;
72028;Laerm;59781;52.090;5.030;2023-05-16T09:57:20;46.27;40.77;63.41;;
72028;Laerm;59781;52.090;5.030;2023-05-16T09:59:49;43.22;39.43;58.81;;
72028;Laerm;59781;52.090;5.030;2023-05-16T10:02:15;42.06;39.52;51.31;;
72028;Laerm;59781;52.090;5.030;2023-05-16T10:04:41;44.42;40.65;53.34;;
72028;Laerm;59781;52.090;5.030;2023-05-16T10:07:08;46.68;39.60;65.82;;
72028;Laerm;59781;52.090;5.030;2023-05-16T10:09:38;43.50;39.05;53.37;;
72028;Laerm;59781;52.090;5.030;2023-05-16T10:12:10;44.41;40.23;55.22;;
72028;Laerm;59781;52.090;5.030;2023-05-16T10:14:41;44.59;40.07;54.93;;
72028;Laerm;59781;52.090;5.030;2023-05-16T10:17:13;42.06;39.03;58.14;;
72028;Laerm;59781;52.090;5.030;2023-05-16T10:19:41;42.04;39.21;49.48;;
72028;Laerm;59781;52.090;5.030;2023-05-16T10:22:11;52.24;39.37;74.72;;
72028;Laerm;59781;52.090;5.030;2023-05-16T10:24:58;43.04;39.47;55.71;;
72028;Laerm;59781;52.090;5.030;2023-05-16T10:27:26;45.60;39.28;59.33;;
72028;Laerm;59781;52.090;5.030;2023-05-16T10:29:53;52.19;40.07;72.70;;
72028;Laerm;59781;52.090;5.030;2023-05-16T10:32:22;56.58;40.28;71.99;;
72028;Laerm;59781;52.090;5.030;2023-05-16T10:34:48;43.82;39.62;69.27;;
72028;Laerm;59781;52.090;5.030;2023-05-16T10:37:14;49.16;40.30;63.22;;
72028;Laerm;59781;52.090;5.030;2023-05-16T10:39:40;43.92;39.52;56.23;;
72028;Laerm;59781;52.090;5.030;2023-05-16T10:42:07;42.68;39.89;54.03;;
72028;Laerm;59781;52.090;5.030;2023-05-16T10:44:33;63.10;39.64;79.91;;
72028;Laerm;59781;52.090;5.030;2023-05-16T10:46:59;43.35;39.14;52.95;;
72028;Laerm;59781;52.090;5.030;2023-05-16T10:49:30;42.15;39.47;51.76;;
72028;Laerm;59781;52.090;5.030;2023-05-16T10:54:42;42.44;39.26;53.97;;
72028;Laerm;59781;52.090;5.030;2023-05-16T10:57:17;42.55;39.42;50.04;;
72028;Laerm;59781;52.090;5.030;2023-05-16T10:59:47;43.28;39.28;56.31;;
72028;Laerm;59781;52.090;5.030;2023-05-16T11:02:31;44.43;40.55;62.46;;
72028;Laerm;59781;52.090;5.030;2023-05-16T11:05:01;44.44;39.55;60.06;;
72028;Laerm;59781;52.090;5.030;2023-05-16T11:07:35;43.05;39.85;54.82;;
72028;Laerm;59781;52.090;5.030;2023-05-16T11:10:14;43.07;39.58;50.65;;
72028;Laerm;59781;52.090;5.030;2023-05-16T11:12:51;42.98;39.36;52.77;;
72028;Laerm;59781;52.090;5.030;2023-05-16T11:15:27;43.43;39.52;54.29;;
72028;Laerm;59781;52.090;5.030;2023-05-16T11:18:07;43.52;39.98;55.73;;
72028;Laerm;59781;52.090;5.030;2023-05-16T11:20:37;45.83;39.25;62.14;;
72028;Laerm;59781;52.090;5.030;2023-05-16T11:23:21;42.75;39.28;47.29;;
72028;Laerm;59781;52.090;5.030;2023-05-16T11:25:54;42.47;39.42;50.87;;
72028;Laerm;59781;52.090;5.030;2023-05-16T11:28:24;43.34;39.96;57.19;;
72028;Laerm;59781;52.090;5.030;2023-05-16T11:30:54;43.41;38.80;54.97;;
72028;Laerm;59781;52.090;5.030;2023-05-16T11:33:23;44.02;40.41;64.44;;
72028;Laerm;59781;52.090;5.030;2023-05-16T11:36:06;45.72;40.07;55.83;;
72028;Laerm;59781;52.090;5.030;2023-05-16T11:38:33;42.65;39.40;54.75;;
72028;Laerm;59781;52.090;5.030;2023-05-16T11:41:07;47.27;39.17;62.45;;
72028;Laerm;59781;52.090;5.030;2023-05-16T11:43:45;46.35;39.48;66.83;;
72028;Laerm;59781;52.090;5.030;2023-05-16T11:46:14;43.40;39.31;50.93;;
72028;Laerm;59781;52.090;5.030;2023-05-16T11:48:42;53.39;40.14;71.34;;
72028;Laerm;59781;52.090;5.030;2023-05-16T11:51:09;43.60;40.35;53.26;;
72028;Laerm;59781;52.090;5.030;2023-05-16T11:53:36;46.56;39.46;59.87;;
72028;Laerm;59781;52.090;5.030;2023-05-16T11:56:02;42.96;39.11;52.49;;
72028;Laerm;59781;52.090;5.030;2023-05-16T11:58:28;47.32;39.47;60.16;;
72028;Laerm;59781;52.090;5.030;2023-05-16T12:00:55;42.00;39.27;51.24;;
72028;Laerm;59781;52.090;5.030;2023-05-16T12:03:21;44.47;39.86;55.60;;
72028;Laerm;59781;52.090;5.030;2023-05-16T12:05:55;43.80;40.14;60.86;;
72028;Laerm;59781;52.090;5.030;2023-05-16T12:08:25;43.48;40.27;59.93;;
72028;Laerm;59781;52.090;5.030;2023-05-16T12:10:52;46.46;40.01;61.17;;
72028;Laerm;59781;52.090;5.030;2023-05-16T12:13:22;42.73;39.73;56.46;;
72028;Laerm;59781;52.090;5.030;2023-05-16T12:15:50;45.93;39.66;60.37;;
72028;Laerm;59781;52.090;5.030;2023-05-16T12:18:20;48.06;39.52;62.26;;
72028;Laerm;59781;52.090;5.030;2023-05-16T12:20:46;48.33;40.51;63.61;;
72028;Laerm;59781;52.090;5.030;2023-05-16T12:23:13;47.84;40.26;62.17;;
72028;Laerm;59781;52.090;5.030;2023-05-16T12:25:46;46.99;40.38;76.04;;
72028;Laerm;59781;52.090;5.030;2023-05-16T12:28:14;46.78;39.88;62.33;;
72028;Laerm;59781;52.090;5.030;2023-05-16T12:30:43;44.39;40.41;55.67;;
72028;Laerm;59781;52.090;5.030;2023-05-16T12:33:14;42.85;39.20;55.18;;
72028;Laerm;59781;52.090;5.030;2023-05-16T12:35:46;43.45;40.09;61.64;;
72028;Laerm;59781;52.090;5.030;2023-05-16T12:38:14;43.43;39.83;50.88;;
72028;Laerm;59781;52.090;5.030;2023-05-16T12:40:43;42.91;39.75;57.94;;
72028;Laerm;59781;52.090;5.030;2023-05-16T12:43:18;43.45;40.42;52.16;;
72028;Laerm;59781;52.090;5.030;2023-05-16T12:45:56;43.50;40.04;53.02;;
72028;Laerm;59781;52.090;5.030;2023-05-16T12:48:30;45.62;40.75;56.95;;
72028;Laerm;59781;52.090;5.030;2023-05-16T12:50:56;45.51;40.43;66.56;;
72028;Laerm;59781;52.090;5.030;2023-05-16T12:53:46;44.60;40.17;59.08;;
72028;Laerm;59781;52.090;5.030;2023-05-16T12:56:14;44.15;40.17;56.86;;
72028;Laerm;59781;52.090;5.030;2023-05-16T12:58:41;47.20;40.48;59.28;;
72028;Laerm;59781;52.090;5.030;2023-05-16T13:01:08;43.37;39.92;49.48;;
72028;Laerm;59781;52.090;5.030;2023-05-16T13:03:34;46.95;40.18;58.52;;
72028;Laerm;59781;52.090;5.030;2023-05-16T13:06:01;44.38;40.66;54.22;;
72028;Laerm;59781;52.090;5.030;2023-05-16T13:08:28;42.62;39.23;52.08;;
72028;Laerm;59781;52.090;5.030;2023-05-16T13:10:54;48.02;40.39;61.43;;
72028;Laerm;59781;52.090;5.030;2023-05-16T13:13:21;45.94;39.93;56.74;;
72028;Laerm;59781;52.090;5.030;2023-05-16T13:15:46;43.20;39.66;51.28;;
72028;Laerm;59781;52.090;5.030;2023-05-16T13:18:15;43.58;39.81;57.44;;
72028;Laerm;59781;52.090;5.030;2023-05-16T13:20:41;45.44;40.55;62.08;;
72028;Laerm;59781;52.090;5.030;2023-05-16T13:23:06;45.41;40.02;57.88;;
72028;Laerm;59781;52.090;5.030;2023-05-16T13:25:33;44.02;41.18;54.55;;
72028;Laerm;59781;52.090;5.030;2023-05-16T13:27:59;44.13;40.75;53.90;;
72028;Laerm;59781;52.090;5.030;2023-05-16T13:30:24;43.24;39.94;50.99;;
72028;Laerm;59781;52.090;5.030;2023-05-16T13:32:50;45.21;40.99;55.43;;
72028;Laerm;59781;52.090;5.030;2023-05-16T13:35:17;42.61;39.41;51.17;;
72028;Laerm;59781;52.090;5.030;2023-05-16T13:37:43;44.75;39.88;52.37;;
72028;Laerm;59781;52.090;5.030;2023-05-16T13:40:09;43.93;40.33;55.55;;
72028;Laerm;59781;52.090;5.030;2023-05-16T13:42:37;43.67;39.67;54.34;;
72028;Laerm;59781;52.090;5.030;2023-05-16T13:45:06;45.08;40.33;56.39;;
72028;Laerm;59781;52.090;5.030;2023-05-16T13:47:32;46.57;41.00;63.08;;
72028;Laerm;59781;52.090;5.030;2023-05-16T13:49:58;45.55;39.63;62.25;;
72028;Laerm;59781;52.090;5.030;2023-05-16T13:52:28;46.17;40.73;65.21;;
72028;Laerm;59781;52.090;5.030;2023-05-16T13:54:54;44.32;40.67;50.90;;
72028;Laerm;59781;52.090;5.030;2023-05-16T13:57:20;43.70;40.51;56.62;;